createdAt,value
2019-03-18T00:01:09.187Z,2.07
2019-03-18T00:04:15.712Z,2.14
2019-03-18T00:07:22.107Z,2.10
2019-03-18T00:10:28.381Z,2.12
2019-03-18T00:13:35.247Z,1.99
2019-03-18T00:16:42.011Z,1.79
2019-03-18T00:19:48.715Z,1.74
2019-03-18T00:22:55.333Z,1.64
2019-03-18T00:26:02.076Z,1.63
2019-03-18T00:29:08.437Z,1.61
2019-03-18T00:32:14.954Z,1.55
2019-03-18T00:35:21.479Z,1.46
2019-03-18T00:38:28.298Z,1.39
2019-03-18T00:41:37.977Z,1.47
2019-03-18T00:44:44.336Z,1.45
2019-03-18T00:47:50.761Z,1.48
2019-03-18T00:50:57.161Z,1.58
2019-03-18T00:54:03.516Z,1.38
2019-03-18T00:57:10.107Z,1.29
2019-03-18T01:00:16.996Z,1.22
2019-03-18T01:03:23.184Z,1.24
2019-03-18T01:06:29.803Z,1.18
2019-03-18T01:09:36.143Z,1.09
2019-03-18T01:12:43.023Z,0.98
2019-03-18T01:15:49.607Z,1.10
2019-03-18T01:18:56.356Z,0.98
2019-03-18T01:22:03.410Z,1.03
2019-03-18T01:25:10.088Z,1.08
2019-03-18T01:28:16.591Z,1.04
2019-03-18T01:31:24.122Z,0.92
2019-03-18T01:34:31.188Z,0.82
2019-03-18T01:37:39.287Z,0.89
2019-03-18T01:40:45.858Z,0.78
2019-03-18T01:43:52.402Z,0.79
2019-03-18T01:46:58.951Z,0.87
2019-03-18T01:50:06.466Z,1.00
2019-03-18T01:53:12.833Z,0.91
2019-03-18T01:56:19.182Z,0.79
2019-03-18T01:59:25.767Z,0.84
2019-03-18T02:02:32.296Z,0.79
2019-03-18T02:05:38.539Z,0.83
2019-03-18T02:08:45.195Z,0.85
2019-03-18T02:11:52.254Z,0.70
2019-03-18T02:14:58.505Z,0.62
2019-03-18T02:18:05.459Z,0.54
2019-03-18T02:21:12.209Z,0.50
2019-03-18T02:24:18.977Z,0.57
2019-03-18T02:27:25.427Z,0.59
2019-03-18T02:30:31.980Z,0.62
2019-03-18T02:33:38.309Z,0.52
2019-03-18T02:36:45.220Z,0.68
2019-03-18T02:39:51.969Z,0.74
2019-03-18T02:43:00.011Z,0.85
2019-03-18T02:46:10.337Z,0.98
2019-03-18T02:49:14.327Z,1.01
2019-03-18T02:52:20.445Z,1.06
2019-03-18T02:55:27.251Z,1.13
2019-03-18T02:58:33.801Z,1.19
2019-03-18T03:01:40.451Z,1.36
2019-03-18T03:04:47.032Z,1.35
2019-03-18T03:07:53.405Z,1.27
2019-03-18T03:10:59.918Z,1.21
2019-03-18T03:14:06.493Z,1.24
2019-03-18T03:17:12.969Z,1.47
2019-03-18T03:20:19.482Z,1.41
2019-03-18T03:23:26.131Z,1.44
2019-03-18T03:26:32.486Z,1.50
2019-03-18T03:29:39.354Z,1.53
2019-03-18T03:32:46.103Z,1.52
2019-03-18T03:35:54.293Z,1.49
2019-03-18T03:39:01.032Z,1.47
2019-03-18T03:42:08.921Z,1.52
2019-03-18T03:45:15.983Z,1.51
2019-03-18T03:48:22.563Z,1.47
2019-03-18T03:51:29.159Z,1.53
2019-03-18T03:54:35.571Z,1.52
2019-03-18T03:57:41.851Z,1.57
2019-03-18T04:00:48.930Z,1.56
2019-03-18T04:03:55.019Z,1.56
2019-03-18T04:07:02.671Z,1.53
2019-03-18T04:10:08.953Z,1.54
2019-03-18T04:13:16.037Z,1.53
2019-03-18T04:16:22.491Z,1.53
2019-03-18T04:19:28.889Z,1.65
2019-03-18T04:22:35.654Z,1.63
2019-03-18T04:25:42.202Z,1.66
2019-03-18T04:28:48.726Z,1.57
2019-03-18T04:31:54.931Z,1.52
2019-03-18T04:35:01.545Z,1.38
2019-03-18T04:38:07.838Z,1.36
2019-03-18T04:41:15.242Z,1.32
2019-03-18T04:44:21.890Z,1.20
2019-03-18T04:47:28.519Z,1.21
2019-03-18T04:50:35.082Z,1.20
2019-03-18T04:53:41.321Z,1.23
2019-03-18T04:56:47.822Z,1.16
2019-03-18T04:59:54.217Z,1.29
2019-03-18T05:03:00.883Z,1.36
2019-03-18T05:06:07.537Z,1.50
2019-03-18T05:09:13.822Z,1.53
2019-03-18T05:12:21.138Z,1.56
2019-03-18T05:15:28.446Z,1.61
2019-03-18T05:18:36.682Z,1.60
2019-03-18T05:21:43.252Z,1.69
2019-03-18T05:24:49.909Z,1.70
2019-03-18T05:27:56.543Z,1.71
2019-03-18T05:31:03.469Z,1.71
2019-03-18T05:34:09.912Z,1.72
2019-03-18T05:37:16.788Z,1.76
2019-03-18T05:40:22.957Z,1.78
2019-03-18T05:43:29.767Z,1.66
2019-03-18T05:46:36.615Z,1.68
2019-03-18T05:49:42.936Z,1.54
2019-03-18T05:52:49.197Z,1.48
2019-03-18T05:55:56.092Z,1.50
2019-03-18T05:59:02.730Z,1.43
2019-03-18T06:02:09.861Z,1.41
2019-03-18T06:05:16.299Z,1.46
2019-03-18T06:08:22.850Z,1.53
2019-03-18T06:11:29.367Z,1.50
2019-03-18T06:14:36.128Z,1.62
2019-03-18T06:17:52.436Z,1.66
2019-03-18T06:20:50.940Z,1.76
2019-03-18T06:23:57.428Z,1.76
2019-03-18T06:27:04.140Z,1.79
2019-03-18T06:30:11.333Z,1.72
2019-03-18T06:33:17.878Z,1.77
2019-03-18T06:36:24.428Z,1.83
2019-03-18T06:39:30.853Z,1.82
2019-03-18T06:42:37.490Z,1.87
2019-03-18T06:45:44.133Z,1.85
2019-03-18T06:48:50.912Z,1.97
2019-03-18T06:51:57.345Z,2.29
2019-03-18T06:55:04.419Z,2.88
2019-03-18T06:58:11.207Z,3.46
2019-03-18T07:01:18.405Z,3.34
2019-03-18T07:04:24.736Z,3.13
2019-03-18T07:07:31.254Z,3.03
2019-03-18T07:10:38.123Z,2.80
2019-03-18T07:13:44.902Z,2.71
2019-03-18T07:16:51.552Z,2.62
2019-03-18T07:19:58.429Z,2.70
2019-03-18T07:23:06.040Z,2.84
2019-03-18T07:26:13.350Z,3.33
2019-03-18T07:29:20.678Z,3.45
2019-03-18T07:32:27.144Z,3.00
2019-03-18T07:35:33.857Z,3.01
2019-03-18T07:38:40.577Z,2.96
2019-03-18T07:41:47.861Z,2.91
2019-03-18T07:44:54.379Z,2.77
2019-03-18T07:48:01.304Z,2.83
2019-03-18T07:51:07.973Z,2.77
2019-03-18T07:54:14.842Z,2.75
2019-03-18T07:57:21.194Z,2.69
2019-03-18T08:00:27.811Z,2.69
2019-03-18T08:03:36.451Z,2.67
2019-03-18T08:06:42.182Z,2.71
2019-03-18T08:09:49.124Z,2.88
2019-03-18T08:12:55.791Z,3.02
2019-03-18T08:16:02.798Z,3.08
2019-03-18T08:19:09.504Z,3.05
2019-03-18T08:22:15.853Z,3.06
2019-03-18T08:25:23.065Z,3.17
2019-03-18T08:28:29.316Z,3.08
2019-03-18T08:31:37.068Z,2.93
2019-03-18T08:34:43.896Z,3.02
2019-03-18T08:37:50.759Z,3.02
2019-03-18T08:40:57.663Z,2.97
2019-03-18T08:44:04.168Z,3.06
2019-03-18T08:47:10.624Z,3.10
2019-03-18T08:50:17.223Z,3.20
2019-03-18T08:53:24.114Z,3.21
2019-03-18T08:56:30.823Z,3.15
2019-03-18T08:59:37.936Z,2.88
2019-03-18T09:02:44.360Z,3.01
2019-03-18T09:05:52.014Z,3.09
2019-03-18T09:08:58.607Z,3.25
2019-03-18T09:12:06.970Z,3.45
2019-03-18T09:15:13.641Z,3.61
2019-03-18T09:18:20.563Z,3.78
2019-03-18T09:21:27.503Z,3.77
2019-03-18T09:24:34.771Z,3.82
2019-03-18T09:27:41.779Z,3.81
2019-03-18T09:30:48.336Z,3.98
2019-03-18T09:33:55.303Z,4.02
2019-03-18T09:37:02.262Z,4.07
2019-03-18T09:40:09.167Z,4.03
2019-03-18T09:43:15.876Z,4.03
2019-03-18T09:46:22.977Z,4.27
2019-03-18T09:49:29.510Z,4.51
2019-03-18T09:52:37.960Z,4.83
2019-03-18T09:55:44.594Z,5.11
2019-03-18T09:58:51.048Z,5.11
2019-03-18T10:01:57.351Z,4.81
2019-03-18T10:05:04.747Z,5.07
2019-03-18T10:08:11.016Z,5.07
2019-03-18T10:11:17.865Z,4.77
2019-03-18T10:14:24.562Z,5.25
2019-03-18T10:17:31.082Z,5.56
2019-03-18T10:20:37.559Z,5.51
2019-03-18T10:23:44.435Z,6.00
2019-03-18T10:26:51.040Z,5.83
2019-03-18T10:29:59.713Z,5.81
2019-03-18T10:33:06.313Z,5.53
2019-03-18T10:36:13.718Z,5.72
2019-03-18T10:39:20.270Z,6.00
2019-03-18T10:42:27.176Z,5.98
2019-03-18T10:45:33.895Z,6.15
2019-03-18T10:48:40.702Z,6.15
2019-03-18T10:51:48.426Z,6.91
2019-03-18T10:54:55.677Z,6.46
2019-03-18T10:58:02.495Z,6.18
2019-03-18T11:01:09.726Z,6.28
2019-03-18T11:04:15.807Z,6.36
2019-03-18T11:07:22.195Z,6.02
2019-03-18T11:10:28.974Z,5.79
2019-03-18T11:13:35.732Z,5.77
2019-03-18T11:16:42.391Z,6.63
2019-03-18T11:19:57.980Z,6.91
2019-03-18T11:22:57.387Z,7.45
2019-03-18T11:26:03.942Z,7.67
2019-03-18T11:29:10.971Z,7.68
2019-03-18T11:32:17.025Z,7.65
2019-03-18T11:35:23.352Z,7.38
2019-03-18T11:38:31.965Z,7.80
2019-03-18T11:41:39.258Z,8.15
2019-03-18T11:44:45.748Z,8.44
2019-03-18T11:47:52.587Z,7.99
2019-03-18T11:50:59.257Z,8.09
2019-03-18T11:54:06.208Z,7.75
2019-03-18T11:57:13.245Z,8.32
2019-03-18T12:00:20.125Z,7.87
2019-03-18T12:03:26.589Z,7.48
2019-03-18T12:06:33.396Z,7.46
2019-03-18T12:09:40.936Z,7.17
2019-03-18T12:12:48.676Z,6.23
2019-03-18T12:15:55.641Z,4.76
2019-03-18T12:19:02.462Z,4.50
2019-03-18T12:22:08.951Z,4.10
2019-03-18T12:25:15.694Z,4.26
2019-03-18T12:28:22.552Z,4.85
2019-03-18T12:31:30.450Z,4.99
2019-03-18T12:34:37.282Z,4.67
2019-03-18T12:37:44.488Z,4.50
2019-03-18T12:40:51.418Z,4.44
2019-03-18T12:43:58.155Z,4.50
2019-03-18T12:47:05.382Z,4.81
2019-03-18T12:50:16.297Z,5.24
2019-03-18T12:53:22.978Z,5.81
2019-03-18T12:56:29.413Z,5.90
2019-03-18T12:59:36.421Z,6.08
2019-03-18T13:02:42.720Z,6.13
2019-03-18T13:05:49.410Z,6.40
2019-03-18T13:08:56.454Z,6.61
2019-03-18T13:12:03.371Z,6.67
2019-03-18T13:15:11.481Z,6.85
2019-03-18T13:18:18.601Z,7.03
2019-03-18T13:21:26.054Z,6.98
2019-03-18T13:24:32.916Z,7.09
2019-03-18T13:27:39.706Z,7.16
2019-03-18T13:30:46.553Z,6.91
2019-03-18T13:33:53.331Z,7.35
2019-03-18T13:36:59.665Z,8.00
2019-03-18T13:40:08.078Z,8.20
2019-03-18T13:43:14.613Z,8.12
2019-03-18T13:46:21.483Z,7.67
2019-03-18T13:49:28.172Z,6.98
2019-03-18T13:52:35.450Z,6.99
2019-03-18T13:55:42.748Z,7.45
2019-03-18T13:58:50.245Z,7.80
2019-03-18T14:01:57.315Z,6.97
2019-03-18T14:05:06.578Z,7.07
2019-03-18T14:08:14.804Z,6.78
2019-03-18T14:11:21.767Z,6.78
2019-03-18T14:14:28.512Z,5.16
2019-03-18T14:17:35.033Z,4.78
2019-03-18T14:20:41.732Z,4.53
2019-03-18T14:23:48.630Z,4.18
2019-03-18T14:26:55.453Z,4.50
2019-03-18T14:30:02.339Z,4.14
2019-03-18T14:33:08.787Z,4.26
2019-03-18T14:36:15.218Z,4.68
2019-03-18T14:39:21.831Z,4.86
2019-03-18T14:42:28.979Z,4.99
2019-03-18T14:45:35.969Z,5.15
2019-03-18T14:48:42.563Z,5.22
2019-03-18T14:51:49.027Z,5.60
2019-03-18T14:54:55.539Z,5.65
2019-03-18T14:58:05.368Z,5.76
2019-03-18T15:01:12.388Z,5.76
2019-03-18T15:04:18.703Z,5.77
2019-03-18T15:07:25.803Z,5.74
2019-03-18T15:10:32.757Z,5.93
2019-03-18T15:13:39.872Z,6.06
2019-03-18T15:16:47.112Z,6.25
2019-03-18T15:19:54.077Z,6.16
2019-03-18T15:23:00.650Z,6.26
2019-03-18T15:26:10.622Z,6.42
2019-03-18T15:29:20.988Z,6.26
2019-03-18T15:32:28.165Z,6.06
2019-03-18T15:35:34.796Z,5.94
2019-03-18T15:38:42.076Z,5.83
2019-03-18T15:41:48.865Z,5.61
2019-03-18T15:44:55.465Z,5.52
2019-03-18T15:48:02.103Z,5.68
2019-03-18T15:51:09.309Z,5.74
2019-03-18T15:54:16.030Z,5.85
2019-03-18T15:57:29.473Z,5.84
2019-03-18T16:00:31.342Z,5.80
2019-03-18T16:03:38.121Z,5.75
2019-03-18T16:06:44.787Z,5.69
2019-03-18T16:09:51.710Z,5.58
2019-03-18T16:12:58.411Z,5.44
2019-03-18T16:16:04.913Z,5.52
2019-03-18T16:19:11.641Z,5.42
2019-03-18T16:22:23.364Z,5.35
2019-03-18T16:25:26.812Z,5.08
2019-03-18T16:28:33.152Z,5.12
2019-03-18T16:31:42.254Z,4.97
2019-03-18T16:34:50.084Z,4.85
2019-03-18T16:37:56.657Z,4.51
2019-03-18T16:41:03.488Z,4.63
2019-03-18T16:44:10.071Z,4.41
2019-03-18T16:47:17.231Z,4.11
2019-03-18T16:50:24.337Z,4.07
2019-03-18T16:53:31.162Z,3.85
2019-03-18T16:56:38.330Z,3.67
2019-03-18T16:59:45.662Z,3.46
2019-03-18T17:02:52.170Z,3.32
2019-03-18T17:05:59.228Z,3.13
2019-03-18T17:09:08.210Z,2.96
2019-03-18T17:12:15.640Z,2.97
2019-03-18T17:15:22.312Z,2.86
2019-03-18T17:18:28.803Z,2.77
2019-03-18T17:21:36.426Z,2.43
2019-03-18T17:24:43.671Z,2.41
2019-03-18T17:27:50.496Z,2.18
2019-03-18T17:30:57.223Z,2.12
2019-03-18T17:34:04.237Z,2.00
2019-03-18T17:37:10.961Z,1.99
2019-03-18T17:40:17.421Z,1.89
2019-03-18T17:43:24.555Z,1.95
2019-03-18T17:46:31.369Z,1.97
2019-03-18T17:49:38.124Z,1.83
2019-03-18T17:52:44.948Z,1.79
2019-03-18T17:55:51.697Z,1.68
2019-03-18T17:58:58.360Z,1.59
2019-03-18T18:02:05.125Z,1.58
2019-03-18T18:05:12.074Z,1.35
2019-03-18T18:08:18.831Z,1.29
2019-03-18T18:11:25.267Z,1.22
2019-03-18T18:14:33.601Z,1.11
2019-03-18T18:17:40.170Z,1.01
2019-03-18T18:20:47.944Z,1.03
2019-03-18T18:23:54.701Z,1.08
2019-03-18T18:27:01.362Z,1.00
2019-03-18T18:30:08.641Z,0.92
2019-03-18T18:33:15.713Z,0.92
2019-03-18T18:36:25.305Z,0.89
2019-03-18T18:39:32.333Z,0.96
2019-03-18T18:42:39.223Z,0.91
2019-03-18T18:45:46.125Z,0.95
2019-03-18T18:48:52.849Z,0.81
2019-03-18T18:52:00.404Z,0.81
2019-03-18T18:55:08.525Z,0.72
2019-03-18T18:58:15.775Z,0.66
2019-03-18T19:01:23.492Z,0.56
2019-03-18T19:04:30.358Z,0.26
2019-03-18T19:07:37.526Z,0.14
2019-03-18T19:10:44.286Z,0.20
2019-03-18T19:13:51.474Z,0.14
2019-03-18T19:16:58.766Z,0.20
2019-03-18T19:20:06.161Z,0.05
2019-03-18T19:23:13.219Z,-0.03
2019-03-18T19:26:20.099Z,-0.04
2019-03-18T19:29:27.228Z,-0.11
2019-03-18T19:32:33.958Z,-0.32
2019-03-18T19:35:40.762Z,-0.40
2019-03-18T19:38:47.286Z,-0.46
2019-03-18T19:41:55.164Z,-0.47
2019-03-18T19:45:02.416Z,-0.73
2019-03-18T19:48:13.878Z,-0.74
2019-03-18T19:51:24.213Z,-0.63
2019-03-18T19:54:30.874Z,-0.67
2019-03-18T19:57:37.688Z,-0.80
2019-03-18T20:00:44.441Z,-0.75
2019-03-18T20:03:51.046Z,-0.81
2019-03-18T20:06:57.965Z,-0.86
2019-03-18T20:10:06.899Z,-0.82
2019-03-18T20:13:14.739Z,-0.96
2019-03-18T20:16:21.527Z,-1.06
2019-03-18T20:19:28.590Z,-0.93
2019-03-18T20:22:35.722Z,-0.82
2019-03-18T20:25:43.517Z,-0.94
2019-03-18T20:28:50.205Z,-0.90
2019-03-18T20:31:58.436Z,-0.86
2019-03-18T20:35:06.473Z,-0.77
2019-03-18T20:38:13.535Z,-0.56
2019-03-18T20:41:20.291Z,-0.47
2019-03-18T20:44:27.114Z,-0.51
2019-03-18T20:47:37.114Z,-0.38
2019-03-18T20:50:43.483Z,-0.32
2019-03-18T20:53:49.956Z,-0.38
2019-03-18T20:56:57.151Z,-0.30
2019-03-18T21:00:06.229Z,-0.22
2019-03-18T21:03:15.035Z,-0.13
2019-03-18T21:06:21.675Z,-0.03
2019-03-18T21:09:28.257Z,0.09
2019-03-18T21:12:35.407Z,0.12
2019-03-18T21:15:42.528Z,0.15
2019-03-18T21:18:49.013Z,0.20
2019-03-18T21:21:55.273Z,0.16
2019-03-18T21:25:04.837Z,0.21
2019-03-18T21:28:13.549Z,0.17
2019-03-18T21:31:22.183Z,0.17
2019-03-18T21:34:28.767Z,0.10
2019-03-18T21:37:35.692Z,0.05
2019-03-18T21:40:42.321Z,-0.01
2019-03-18T21:43:49.140Z,-0.04
2019-03-18T21:46:55.534Z,-0.05
2019-03-18T21:50:01.861Z,-0.06
2019-03-18T21:53:08.829Z,-0.03
2019-03-18T21:56:15.361Z,-0.04
2019-03-18T21:59:22.379Z,0.00
2019-03-18T22:02:29.056Z,-0.03
2019-03-18T22:05:35.743Z,-0.12
2019-03-18T22:08:42.582Z,-0.25
2019-03-18T22:11:49.812Z,-0.31
2019-03-18T22:14:56.549Z,-0.26
2019-03-18T22:18:03.491Z,-0.28
2019-03-18T22:21:10.045Z,-0.40
2019-03-18T22:24:16.626Z,-0.42
2019-03-18T22:27:23.088Z,-0.40
2019-03-18T22:30:29.546Z,-0.50
2019-03-18T22:33:36.101Z,-0.47
2019-03-18T22:36:42.510Z,-0.49
2019-03-18T22:39:48.810Z,-0.52
2019-03-18T22:42:55.534Z,-0.48
2019-03-18T22:46:01.893Z,-0.54
2019-03-18T22:49:08.864Z,-0.55
2019-03-18T22:52:15.432Z,-0.50
2019-03-18T22:55:22.550Z,-0.51
2019-03-18T22:58:28.698Z,-0.36
2019-03-18T23:01:35.797Z,-0.51
2019-03-18T23:04:42.720Z,-0.51
2019-03-18T23:07:49.073Z,-0.48
2019-03-18T23:10:55.667Z,-0.50
2019-03-18T23:14:02.186Z,-0.53
2019-03-18T23:17:09.147Z,-0.44
2019-03-18T23:20:16.046Z,-0.48
2019-03-18T23:23:22.627Z,-0.45
2019-03-18T23:26:29.207Z,-0.53
2019-03-18T23:29:35.887Z,-0.54
2019-03-18T23:32:42.738Z,-0.61
2019-03-18T23:35:49.465Z,-0.62
2019-03-18T23:38:56.096Z,-0.64
2019-03-18T23:42:03.198Z,-0.76
2019-03-18T23:45:09.754Z,-0.87
2019-03-18T23:48:16.279Z,-0.85
2019-03-18T23:51:23.554Z,-0.92
2019-03-18T23:54:30.684Z,-0.93
2019-03-18T23:57:37.261Z,-1.10
